createdAt,value
2023-03-04T00:00:06.783Z,98113.56
2023-03-04T00:01:09.720Z,98110.78
2023-03-04T00:02:13.144Z,98117.66
2023-03-04T00:03:16.292Z,98114.09
2023-03-04T00:04:19.205Z,98114.75
2023-03-04T00:05:22.271Z,98108.94
2023-03-04T00:06:25.413Z,98118.53
2023-03-04T00:07:29.062Z,98117.38
2023-03-04T00:08:31.941Z,98114.28
2023-03-04T00:09:34.938Z,98110.72
2023-03-04T00:10:37.878Z,98109.75
2023-03-04T00:11:40.782Z,98116.47
2023-03-04T00:12:43.691Z,98109.63
2023-03-04T00:13:46.687Z,98107.50
2023-03-04T00:14:49.530Z,98111.44
2023-03-04T00:15:53.522Z,98104.59
2023-03-04T00:16:57.210Z,98107.81
2023-03-04T00:18:00.299Z,98101.22
2023-03-04T00:19:03.402Z,98108.69
2023-03-04T00:20:07.112Z,98103.50
2023-03-04T00:21:10.038Z,98105.91
2023-03-04T00:22:13.153Z,98105.84
2023-03-04T00:23:16.518Z,98109.03
2023-03-04T00:24:19.355Z,98107.97
2023-03-04T00:25:22.311Z,98101.44
2023-03-04T00:26:25.327Z,98101.00
2023-03-04T00:27:28.384Z,98094.34
2023-03-04T00:28:31.288Z,98100.12
2023-03-04T00:29:34.740Z,98094.13
2023-03-04T00:30:37.626Z,98095.59
2023-03-04T00:31:40.607Z,98101.97
2023-03-04T00:32:43.661Z,98097.00
2023-03-04T00:33:46.627Z,98095.22
2023-03-04T00:34:49.538Z,98097.06
2023-03-04T00:35:52.694Z,98102.16
2023-03-04T00:37:01.713Z,98098.06
2023-03-04T00:38:04.626Z,98100.34
2023-03-04T00:39:07.621Z,98102.69
2023-03-04T00:40:12.127Z,98109.34
2023-03-04T00:41:15.119Z,98101.00
2023-03-04T00:42:18.294Z,98106.72
2023-03-04T00:43:21.809Z,98110.22
2023-03-04T00:44:24.799Z,98105.91
2023-03-04T00:45:27.722Z,98111.88
2023-03-04T00:46:30.687Z,98110.50
2023-03-04T00:47:33.830Z,98109.63
2023-03-04T00:48:36.815Z,98107.38
2023-03-04T00:49:39.641Z,98106.41
2023-03-04T00:50:43.208Z,98100.78
2023-03-04T00:51:46.128Z,98102.38
2023-03-04T00:52:49.154Z,98101.72
2023-03-04T00:53:52.642Z,98102.38
2023-03-04T00:54:55.859Z,98102.97
2023-03-04T00:55:58.804Z,98091.72
2023-03-04T00:57:02.182Z,98097.19
2023-03-04T00:58:05.101Z,98091.66
2023-03-04T00:59:08.055Z,98098.38
2023-03-04T01:00:11.745Z,98096.91
2023-03-04T01:01:14.882Z,98098.97
2023-03-04T01:02:18.054Z,98089.88
2023-03-04T01:03:21.311Z,98091.78
2023-03-04T01:04:24.412Z,98093.84
2023-03-04T01:05:27.501Z,98088.09
2023-03-04T01:06:30.736Z,98086.84
2023-03-04T01:07:34.105Z,98084.78
2023-03-04T01:08:37.523Z,98092.69
2023-03-04T01:09:40.889Z,98082.03
2023-03-04T01:10:44.111Z,98084.50
2023-03-04T01:11:47.139Z,98085.91
2023-03-04T01:12:50.045Z,98078.53
2023-03-04T01:13:52.977Z,98080.25
2023-03-04T01:14:55.982Z,98076.97
2023-03-04T01:15:59.064Z,98078.75
2023-03-04T01:17:02.928Z,98078.72
2023-03-04T01:18:06.081Z,98076.34
2023-03-04T01:19:09.266Z,98079.41
2023-03-04T01:20:13.230Z,98080.19
2023-03-04T01:21:16.388Z,98077.94
2023-03-04T01:22:19.627Z,98071.16
2023-03-04T01:23:22.823Z,98069.75
2023-03-04T01:24:25.788Z,98076.62
2023-03-04T01:25:28.812Z,98075.25
2023-03-04T01:26:31.749Z,98070.19
2023-03-04T01:27:34.778Z,98077.06
2023-03-04T01:28:37.903Z,98071.72
2023-03-04T01:29:40.826Z,98073.47
2023-03-04T01:30:43.834Z,98068.28
2023-03-04T01:31:46.880Z,98071.78
2023-03-04T01:32:49.815Z,98070.78
2023-03-04T01:33:52.946Z,98064.13
2023-03-04T01:34:55.940Z,98071.28
2023-03-04T01:35:58.984Z,98070.91
2023-03-04T01:37:02.701Z,98068.00
2023-03-04T01:38:05.541Z,98069.19
2023-03-04T01:39:08.429Z,98072.69
2023-03-04T01:40:13.139Z,98064.78
2023-03-04T01:41:20.060Z,98068.75
2023-03-04T01:42:25.049Z,98065.25
2023-03-04T01:43:30.662Z,98069.97
2023-03-04T01:44:33.917Z,98068.66
2023-03-04T01:45:38.467Z,98070.19
2023-03-04T01:46:52.230Z,98060.28
2023-03-04T01:47:55.386Z,98061.81
2023-03-04T01:48:59.519Z,98057.22
2023-03-04T01:50:05.956Z,98062.44
2023-03-04T01:51:14.129Z,98061.00
2023-03-04T01:52:17.126Z,98057.63
2023-03-04T01:53:26.176Z,98058.94
2023-03-04T01:54:29.363Z,98060.41
2023-03-04T01:55:32.880Z,98060.69
2023-03-04T01:56:39.439Z,98059.25
2023-03-04T01:57:42.546Z,98054.50
2023-03-04T01:58:45.657Z,98055.66
2023-03-04T02:00:08.723Z,98054.47
2023-03-04T02:01:13.385Z,98051.84
2023-03-04T02:02:16.270Z,98049.37
2023-03-04T02:03:22.938Z,98047.13
2023-03-04T02:04:29.620Z,98053.34
2023-03-04T02:05:32.576Z,98054.56
2023-03-04T02:06:39.090Z,98044.78
2023-03-04T02:07:43.531Z,98053.94
2023-03-04T02:08:46.657Z,98039.53
2023-03-04T02:09:49.713Z,98043.41
2023-03-04T02:10:53.109Z,98042.59
2023-03-04T02:11:56.616Z,98042.87
2023-03-04T02:13:01.326Z,98048.81
2023-03-04T02:14:05.383Z,98044.28
2023-03-04T02:15:08.819Z,98040.91
2023-03-04T02:16:11.978Z,98047.94
2023-03-04T02:17:14.943Z,98041.81
2023-03-04T02:18:24.104Z,98041.50
2023-03-04T02:19:51.495Z,98035.44
2023-03-04T02:21:14.750Z,98042.87
2023-03-04T02:22:17.746Z,98036.31
2023-03-04T02:23:33.373Z,98032.16
2023-03-04T02:24:45.816Z,98031.16
2023-03-04T02:26:03.142Z,98028.38
2023-03-04T02:27:06.335Z,98026.91
2023-03-04T02:28:09.347Z,98026.03
2023-03-04T02:29:15.041Z,98030.78
2023-03-04T02:30:23.866Z,98024.94
2023-03-04T02:31:40.432Z,98017.66
2023-03-04T02:32:43.237Z,98019.47
2023-03-04T02:33:46.168Z,98012.78
2023-03-04T02:34:51.092Z,98018.81
2023-03-04T02:35:54.144Z,98018.38
2023-03-04T02:36:58.114Z,98009.47
2023-03-04T02:38:01.143Z,98006.19
2023-03-04T02:39:25.780Z,98018.72
2023-03-04T02:40:33.766Z,98008.03
2023-03-04T02:41:36.929Z,98010.88
2023-03-04T02:42:39.975Z,98007.72
2023-03-04T02:43:46.185Z,98009.91
2023-03-04T02:44:50.834Z,98009.75
2023-03-04T02:45:53.734Z,98008.91
2023-03-04T02:46:57.884Z,98004.50
2023-03-04T02:48:00.956Z,97996.78
2023-03-04T02:49:03.899Z,98002.03
2023-03-04T02:50:07.405Z,98001.75
2023-03-04T02:51:10.355Z,97993.66
2023-03-04T02:52:18.149Z,97993.94
2023-03-04T02:53:22.344Z,97998.31
2023-03-04T02:54:25.600Z,98000.62
2023-03-04T02:55:28.979Z,97997.06
2023-03-04T02:56:31.978Z,98000.12
2023-03-04T02:57:34.942Z,97997.41
2023-03-04T02:58:38.577Z,97993.53
2023-03-04T02:59:42.805Z,97983.19
2023-03-04T03:00:45.910Z,97992.97
2023-03-04T03:01:49.824Z,97997.19
2023-03-04T03:02:52.771Z,97993.84
2023-03-04T03:03:55.613Z,97990.91
2023-03-04T03:04:58.741Z,97993.12
2023-03-04T03:06:01.927Z,97989.69
2023-03-04T03:07:05.130Z,97991.34
2023-03-04T03:08:08.314Z,97990.03
2023-03-04T03:09:11.632Z,97978.91
2023-03-04T03:10:14.696Z,97989.03
2023-03-04T03:11:17.727Z,97996.69
2023-03-04T03:12:20.738Z,97991.09
2023-03-04T03:13:23.902Z,97987.72
2023-03-04T03:14:26.953Z,97987.28
2023-03-04T03:15:29.933Z,97984.28
2023-03-04T03:16:32.941Z,97987.66
2023-03-04T03:17:36.627Z,97976.72
2023-03-04T03:18:40.770Z,97982.47
2023-03-04T03:19:44.342Z,97980.13
2023-03-04T03:20:47.397Z,97985.97
2023-03-04T03:21:50.608Z,97979.63
2023-03-04T03:22:53.485Z,97974.97
2023-03-04T03:23:56.467Z,97977.28
2023-03-04T03:24:59.664Z,97980.25
2023-03-04T03:26:02.964Z,97980.25
2023-03-04T03:27:05.891Z,97978.06
2023-03-04T03:28:09.093Z,97975.59
2023-03-04T03:29:11.983Z,97984.34
2023-03-04T03:30:16.323Z,97977.47
2023-03-04T03:31:20.306Z,97962.25
2023-03-04T03:32:23.642Z,97971.66
2023-03-04T03:33:26.963Z,97975.09
2023-03-04T03:34:30.878Z,97982.47
2023-03-04T03:35:33.941Z,97975.25
2023-03-04T03:36:37.015Z,97970.56
2023-03-04T03:37:40.258Z,97972.41
2023-03-04T03:38:43.253Z,97973.69
2023-03-04T03:39:46.215Z,97972.47
2023-03-04T03:40:49.462Z,97954.56
2023-03-04T03:41:52.453Z,97965.69
2023-03-04T03:42:56.204Z,97970.41
2023-03-04T03:43:59.296Z,97973.72
2023-03-04T03:45:02.253Z,97974.72
2023-03-04T03:46:05.798Z,97971.38
2023-03-04T03:47:08.981Z,97966.28
2023-03-04T03:48:11.947Z,97975.09
2023-03-04T03:49:14.870Z,97973.56
2023-03-04T03:50:18.176Z,97967.59
2023-03-04T03:51:21.436Z,97971.38
2023-03-04T03:52:24.552Z,97968.38
2023-03-04T03:53:27.658Z,97971.16
2023-03-04T03:54:30.867Z,97976.59
2023-03-04T03:55:33.923Z,97968.00
2023-03-04T03:56:36.821Z,97973.25
2023-03-04T03:57:39.692Z,97964.63
2023-03-04T03:58:42.528Z,97969.31
2023-03-04T03:59:45.488Z,97971.66
2023-03-04T04:00:48.578Z,97975.16
2023-03-04T04:01:51.874Z,97966.81
2023-03-04T04:02:57.790Z,97969.09
2023-03-04T04:04:01.500Z,97965.44
2023-03-04T04:05:05.158Z,97970.88
2023-03-04T04:06:08.133Z,97974.37
2023-03-04T04:07:11.014Z,97971.19
2023-03-04T04:08:15.660Z,97978.50
2023-03-04T04:09:18.812Z,97968.59
2023-03-04T04:10:21.949Z,97970.81
2023-03-04T04:11:25.205Z,97966.94
2023-03-04T04:12:28.404Z,97966.28
2023-03-04T04:13:31.529Z,97976.06
2023-03-04T04:14:34.509Z,97960.16
2023-03-04T04:15:38.989Z,97967.94
2023-03-04T04:16:42.624Z,97969.31
2023-03-04T04:17:45.879Z,97965.25
2023-03-04T04:18:48.983Z,97969.81
2023-03-04T04:19:52.139Z,97971.13
2023-03-04T04:20:55.321Z,97962.47
2023-03-04T04:21:58.190Z,97967.91
2023-03-04T04:23:01.248Z,97962.00
2023-03-04T04:24:04.447Z,97969.16
2023-03-04T04:25:10.830Z,97962.59
2023-03-04T04:26:14.237Z,97966.53
2023-03-04T04:27:17.203Z,97961.47
2023-03-04T04:28:20.194Z,97967.53
2023-03-04T04:29:31.003Z,97976.28
2023-03-04T04:30:34.200Z,97953.41
2023-03-04T04:31:37.249Z,97961.16
2023-03-04T04:32:40.418Z,97960.56
2023-03-04T04:33:43.391Z,97959.44
2023-03-04T04:34:46.323Z,97957.53
2023-03-04T04:35:49.188Z,97956.63
2023-03-04T04:36:52.941Z,97951.81
2023-03-04T04:37:55.796Z,97951.66
2023-03-04T04:38:58.914Z,97962.78
2023-03-04T04:40:02.108Z,97961.62
2023-03-04T04:41:05.680Z,97962.53
2023-03-04T04:42:10.989Z,97958.78
2023-03-04T04:43:13.905Z,97950.78
2023-03-04T04:44:16.785Z,97956.91
2023-03-04T04:45:19.719Z,97949.25
2023-03-04T04:46:22.643Z,97952.53
2023-03-04T04:47:26.041Z,97950.78
2023-03-04T04:48:29.100Z,97943.00
2023-03-04T04:49:32.222Z,97951.53
2023-03-04T04:50:35.559Z,97943.44
2023-03-04T04:51:39.516Z,97946.88
2023-03-04T04:52:42.597Z,97949.94
2023-03-04T04:53:45.639Z,97944.25
2023-03-04T04:54:48.631Z,97943.37
2023-03-04T04:55:51.525Z,97947.03
2023-03-04T04:56:54.601Z,97949.09
2023-03-04T04:57:57.478Z,97943.37
2023-03-04T04:59:03.742Z,97942.87
2023-03-04T05:00:07.805Z,97961.69
2023-03-04T05:01:11.048Z,97949.22
2023-03-04T05:02:14.000Z,97945.41
2023-03-04T05:03:18.586Z,97959.50
2023-03-04T05:04:21.679Z,97938.44
2023-03-04T05:05:24.624Z,97946.47
2023-03-04T05:06:27.673Z,97942.87
2023-03-04T05:07:31.183Z,97937.56
2023-03-04T05:08:34.445Z,97943.31
2023-03-04T05:09:37.977Z,97939.72
2023-03-04T05:10:41.076Z,97944.75
2023-03-04T05:11:43.974Z,97945.59
2023-03-04T05:12:46.828Z,97947.75
2023-03-04T05:13:49.884Z,97942.94
2023-03-04T05:14:52.747Z,97946.38
2023-03-04T05:15:56.538Z,97943.37
2023-03-04T05:16:59.890Z,97938.13
2023-03-04T05:18:02.968Z,97945.28
2023-03-04T05:19:06.021Z,97949.19
2023-03-04T05:20:10.921Z,97940.16
2023-03-04T05:21:14.225Z,97941.69
2023-03-04T05:22:17.134Z,97944.59
2023-03-04T05:23:20.534Z,97945.53
2023-03-04T05:24:23.466Z,97942.34
2023-03-04T05:25:26.450Z,97939.97
2023-03-04T05:26:29.461Z,97944.00
2023-03-04T05:27:32.330Z,97944.59
2023-03-04T05:28:36.106Z,97948.56
2023-03-04T05:29:39.006Z,97940.38
2023-03-04T05:30:43.796Z,97945.38
2023-03-04T05:31:46.780Z,97950.44
2023-03-04T05:32:49.642Z,97944.09
2023-03-04T05:33:52.713Z,97946.13
2023-03-04T05:34:55.594Z,97942.72
2023-03-04T05:35:58.894Z,97942.84
2023-03-04T05:37:01.846Z,97946.88
2023-03-04T05:38:07.049Z,97954.31
2023-03-04T05:39:10.038Z,97948.91
2023-03-04T05:40:13.598Z,97952.22
2023-03-04T05:41:19.273Z,97956.97
2023-03-04T05:42:22.308Z,97947.47
2023-03-04T05:43:26.362Z,97957.84
2023-03-04T05:44:29.251Z,97953.16
2023-03-04T05:45:32.345Z,97955.72
2023-03-04T05:46:35.294Z,97960.84
2023-03-04T05:47:38.525Z,97963.50
2023-03-04T05:48:41.625Z,97945.69
2023-03-04T05:49:46.778Z,97953.16
2023-03-04T05:50:57.489Z,97958.69
2023-03-04T05:52:00.477Z,97956.22
2023-03-04T05:53:03.599Z,97959.13
2023-03-04T05:54:06.443Z,97957.97
2023-03-04T05:55:09.889Z,97957.22
2023-03-04T05:56:15.934Z,97957.22
2023-03-04T05:57:19.247Z,97959.47
2023-03-04T05:58:22.830Z,97956.84
2023-03-04T05:59:26.013Z,97960.81
2023-03-04T06:00:29.171Z,97948.38
2023-03-04T06:01:32.211Z,97966.47
2023-03-04T06:02:38.170Z,97961.00
2023-03-04T06:03:41.155Z,97954.16
2023-03-04T06:04:44.073Z,97959.75
2023-03-04T06:05:47.249Z,97970.56
2023-03-04T06:06:50.130Z,97970.34
2023-03-04T06:07:53.048Z,97970.34
2023-03-04T06:08:55.980Z,97976.41
2023-03-04T06:09:58.983Z,97967.28
2023-03-04T06:11:02.049Z,97966.84
2023-03-04T06:12:05.203Z,97968.47
2023-03-04T06:13:08.952Z,97971.88
2023-03-04T06:14:12.075Z,97986.41
2023-03-04T06:15:15.281Z,97973.47
2023-03-04T06:16:18.302Z,97981.87
2023-03-04T06:17:21.692Z,97976.25
2023-03-04T06:18:26.280Z,97975.78
2023-03-04T06:19:29.478Z,97982.44
2023-03-04T06:20:32.681Z,97977.34
2023-03-04T06:21:35.732Z,97983.00
2023-03-04T06:22:38.751Z,97973.03
2023-03-04T06:23:42.320Z,97970.38
2023-03-04T06:24:45.247Z,97973.91
2023-03-04T06:25:52.677Z,97980.66
2023-03-04T06:26:55.811Z,97979.31
2023-03-04T06:27:58.775Z,97978.34
2023-03-04T06:29:01.720Z,97983.34
2023-03-04T06:30:06.259Z,97990.19
2023-03-04T06:31:09.513Z,97990.13
2023-03-04T06:32:12.559Z,97993.22
2023-03-04T06:33:15.487Z,97991.28
2023-03-04T06:34:18.478Z,97989.78
2023-03-04T06:35:21.574Z,97995.25
2023-03-04T06:36:24.420Z,97987.75
2023-03-04T06:37:27.647Z,98006.97
2023-03-04T06:38:30.921Z,97989.59
2023-03-04T06:39:34.129Z,97992.00
2023-03-04T06:40:37.324Z,98001.09
2023-03-04T06:41:40.960Z,97988.50
2023-03-04T06:42:44.238Z,97990.56
2023-03-04T06:43:47.276Z,97993.50
2023-03-04T06:44:50.215Z,97995.50
2023-03-04T06:45:53.232Z,97995.38
2023-03-04T06:46:56.254Z,97996.22
2023-03-04T06:47:59.243Z,97995.50
2023-03-04T06:49:03.131Z,97993.22
2023-03-04T06:50:07.040Z,97999.44
2023-03-04T06:51:11.846Z,97999.25
2023-03-04T06:52:14.806Z,98001.12
2023-03-04T06:53:18.099Z,97995.00
2023-03-04T06:54:21.126Z,98004.44
2023-03-04T06:55:24.741Z,98001.94
2023-03-04T06:56:27.716Z,98001.00
2023-03-04T06:57:30.835Z,97998.50
2023-03-04T06:58:33.912Z,98001.44
2023-03-04T06:59:36.891Z,97999.66
2023-03-04T07:00:40.070Z,98009.44
2023-03-04T07:01:43.134Z,97995.03
2023-03-04T07:02:46.177Z,97997.03
2023-03-04T07:03:50.551Z,98001.00
2023-03-04T07:04:53.627Z,98003.59
2023-03-04T07:05:56.580Z,98004.72
2023-03-04T07:06:59.367Z,97998.13
2023-03-04T07:08:02.245Z,98000.97
2023-03-04T07:09:05.313Z,97997.94
2023-03-04T07:10:10.388Z,97994.59
2023-03-04T07:11:13.849Z,97992.94
2023-03-04T07:12:17.210Z,97993.34
2023-03-04T07:13:20.185Z,98013.25
2023-03-04T07:14:24.252Z,97992.62
2023-03-04T07:15:27.864Z,97997.84
2023-03-04T07:16:30.893Z,97997.37
2023-03-04T07:17:35.183Z,98005.19
2023-03-04T07:18:38.651Z,98003.28
2023-03-04T07:19:42.270Z,97992.62
2023-03-04T07:20:45.648Z,98008.94
2023-03-04T07:21:48.622Z,97999.56
2023-03-04T07:22:51.631Z,97994.66
2023-03-04T07:23:54.494Z,97997.78
2023-03-04T07:24:57.497Z,98009.22
2023-03-04T07:26:00.447Z,98008.34
2023-03-04T07:27:03.501Z,98004.25
2023-03-04T07:28:06.422Z,98002.97
2023-03-04T07:29:09.593Z,98003.78
2023-03-04T07:30:13.128Z,97991.13
2023-03-04T07:31:24.371Z,97997.66
2023-03-04T07:32:28.092Z,97997.91
2023-03-04T07:33:31.063Z,97995.59
2023-03-04T07:34:34.006Z,97992.59
2023-03-04T07:35:37.095Z,97992.84
2023-03-04T07:36:41.514Z,98001.75
2023-03-04T07:37:44.580Z,97992.38
2023-03-04T07:38:49.148Z,98000.53
2023-03-04T07:39:52.316Z,97998.78
2023-03-04T07:40:57.560Z,98002.97
2023-03-04T07:42:00.518Z,97993.41
2023-03-04T07:43:04.211Z,97998.50
2023-03-04T07:44:09.014Z,98005.41
2023-03-04T07:45:12.403Z,97997.44
2023-03-04T07:46:16.624Z,98000.00
2023-03-04T07:47:19.967Z,97993.84
2023-03-04T07:48:23.760Z,98002.53
2023-03-04T07:49:26.706Z,98000.19
2023-03-04T07:50:29.558Z,97999.28
2023-03-04T07:51:32.595Z,97996.03
2023-03-04T07:52:39.904Z,97996.59
2023-03-04T07:53:50.063Z,97997.50
2023-03-04T07:54:53.621Z,97995.31
2023-03-04T07:55:56.550Z,97993.12
2023-03-04T07:56:59.506Z,97997.44
2023-03-04T07:58:03.566Z,98008.16
2023-03-04T07:59:06.724Z,97995.25
2023-03-04T08:00:11.658Z,97995.59
2023-03-04T08:01:17.570Z,98005.56
2023-03-04T08:02:20.775Z,97999.94
2023-03-04T08:03:23.915Z,98011.72
2023-03-04T08:04:27.061Z,98010.78
2023-03-04T08:05:29.991Z,98006.06
2023-03-04T08:06:33.678Z,98011.31
2023-03-04T08:07:36.765Z,98001.16
2023-03-04T08:08:40.149Z,98009.69
2023-03-04T08:09:43.521Z,98007.84
2023-03-04T08:10:46.725Z,98006.53
2023-03-04T08:11:49.707Z,98007.44
2023-03-04T08:12:52.644Z,98008.50
2023-03-04T08:13:55.756Z,98006.69
2023-03-04T08:14:59.310Z,98006.84
2023-03-04T08:16:03.060Z,98007.69
2023-03-04T08:17:06.267Z,98013.00
2023-03-04T08:18:09.442Z,98007.69
2023-03-04T08:19:12.685Z,98017.66
2023-03-04T08:20:15.563Z,98013.25
2023-03-04T08:21:20.370Z,98012.53
2023-03-04T08:22:23.542Z,98014.16
2023-03-04T08:23:26.602Z,98011.06
2023-03-04T08:24:29.551Z,98003.75
2023-03-04T08:25:32.540Z,98016.59
2023-03-04T08:26:40.909Z,98011.66
2023-03-04T08:27:44.146Z,98007.66
2023-03-04T08:28:47.485Z,98018.91
2023-03-04T08:29:50.362Z,98019.97
2023-03-04T08:30:55.065Z,98009.88
2023-03-04T08:31:58.223Z,98010.06
2023-03-04T08:33:02.319Z,98013.28
2023-03-04T08:34:06.653Z,98011.44
2023-03-04T08:35:09.479Z,98017.97
2023-03-04T08:36:13.467Z,98022.47
2023-03-04T08:37:16.327Z,98013.72
2023-03-04T08:38:19.272Z,98007.16
2023-03-04T08:39:22.356Z,98016.47
2023-03-04T08:40:27.334Z,98015.16
2023-03-04T08:41:30.322Z,98005.88
2023-03-04T08:42:33.434Z,98013.16
2023-03-04T08:43:36.455Z,98007.69
2023-03-04T08:44:39.613Z,98008.38
2023-03-04T08:45:42.648Z,98010.69
2023-03-04T08:46:45.565Z,98001.06
2023-03-04T08:47:49.231Z,98006.69
2023-03-04T08:48:52.185Z,97998.56
2023-03-04T08:49:55.889Z,98001.00
2023-03-04T08:50:59.014Z,97987.13
2023-03-04T08:52:02.033Z,98005.00
2023-03-04T08:53:05.077Z,97990.00
2023-03-04T08:54:08.114Z,97988.22
2023-03-04T08:55:11.138Z,97996.56
2023-03-04T08:56:15.427Z,97983.09
2023-03-04T08:57:18.394Z,97985.25
2023-03-04T08:58:21.404Z,97985.25
2023-03-04T08:59:24.522Z,97981.91
2023-03-04T09:00:27.825Z,97986.94
2023-03-04T09:01:30.781Z,97980.03
2023-03-04T09:02:33.784Z,97978.66
2023-03-04T09:03:37.207Z,97980.25
2023-03-04T09:04:40.504Z,97981.16
2023-03-04T09:05:45.835Z,97974.06
2023-03-04T09:06:48.803Z,97982.44
2023-03-04T09:07:51.845Z,97977.69
2023-03-04T09:08:54.766Z,97972.72
2023-03-04T09:09:57.676Z,97974.63
2023-03-04T09:11:00.683Z,97971.78
2023-03-04T09:12:04.241Z,97974.31
2023-03-04T09:13:07.655Z,97967.31
2023-03-04T09:14:10.634Z,97974.31
2023-03-04T09:15:13.631Z,97959.94
2023-03-04T09:16:16.935Z,97973.34
2023-03-04T09:17:20.089Z,97967.53
2023-03-04T09:18:24.645Z,97966.59
2023-03-04T09:19:28.304Z,97969.91
2023-03-04T09:20:32.661Z,97967.94
2023-03-04T09:21:38.356Z,97971.13
2023-03-04T09:22:42.647Z,97969.38
2023-03-04T09:23:45.646Z,97970.00
2023-03-04T09:24:48.642Z,97974.25
2023-03-04T09:25:51.778Z,97971.59
2023-03-04T09:26:55.576Z,97974.47
2023-03-04T09:27:58.557Z,97978.94
2023-03-04T09:29:02.651Z,97974.34
2023-03-04T09:30:06.457Z,97972.00
2023-03-04T09:31:15.503Z,97977.78
2023-03-04T09:32:18.453Z,97975.47
2023-03-04T09:33:21.667Z,97984.25
2023-03-04T09:34:24.627Z,97975.31
2023-03-04T09:35:30.279Z,97976.03
2023-03-04T09:36:33.640Z,97970.75
2023-03-04T09:37:38.654Z,97974.91
2023-03-04T09:38:43.422Z,97983.84
2023-03-04T09:39:46.252Z,97974.03
2023-03-04T09:40:50.264Z,97972.72
2023-03-04T09:41:59.342Z,97972.59
2023-03-04T09:43:05.740Z,97989.16
2023-03-04T09:44:27.853Z,97975.63
2023-03-04T09:45:40.882Z,97977.00
2023-03-04T09:46:45.605Z,97988.59
2023-03-04T09:47:51.739Z,97979.84
2023-03-04T09:48:56.484Z,97979.81
2023-03-04T09:50:07.522Z,97975.56
2023-03-04T09:51:35.330Z,97974.53
2023-03-04T09:53:13.890Z,97984.69
2023-03-04T09:54:26.125Z,97976.22
2023-03-04T09:55:36.711Z,97972.16
2023-03-04T09:56:41.638Z,97968.41
2023-03-04T09:57:59.621Z,97976.59
2023-03-04T09:59:25.586Z,97977.06
2023-03-04T10:00:52.375Z,97973.03
2023-03-04T10:01:58.300Z,97975.31
2023-03-04T10:03:12.756Z,97971.03
2023-03-04T10:04:15.808Z,97968.03
2023-03-04T10:05:25.818Z,97971.19
2023-03-04T10:06:31.700Z,97975.06
2023-03-04T10:07:39.097Z,97973.22
2023-03-04T10:09:00.396Z,97970.31
2023-03-04T10:10:06.205Z,97978.16
2023-03-04T10:11:17.486Z,97966.50
2023-03-04T10:12:24.741Z,97973.31
2023-03-04T10:13:41.138Z,97970.75
2023-03-04T10:14:51.684Z,97973.22
2023-03-04T10:15:57.449Z,97972.19
2023-03-04T10:17:06.855Z,97967.91
2023-03-04T10:18:22.681Z,97969.53
2023-03-04T10:19:44.389Z,97965.34
2023-03-04T10:20:51.697Z,97964.94
2023-03-04T10:21:54.600Z,97962.06
2023-03-04T10:23:02.884Z,97971.75
2023-03-04T10:24:14.990Z,97970.03
2023-03-04T10:25:19.879Z,97959.50
2023-03-04T10:26:23.462Z,97949.81
2023-03-04T10:27:26.841Z,97957.47
2023-03-04T10:28:35.263Z,97959.03
2023-03-04T10:29:38.344Z,97955.56
2023-03-04T10:31:08.811Z,97954.12
2023-03-04T10:32:21.778Z,97958.56
2023-03-04T10:33:31.165Z,97957.13
2023-03-04T10:34:34.327Z,97953.41
2023-03-04T10:35:38.799Z,97948.63
2023-03-04T10:36:55.752Z,97947.47
2023-03-04T10:38:03.786Z,97942.16
2023-03-04T10:39:11.544Z,97949.25
2023-03-04T10:40:26.158Z,97941.88
2023-03-04T10:41:31.005Z,97942.75
2023-03-04T10:42:38.109Z,97941.47
2023-03-04T10:43:42.872Z,97948.38
2023-03-04T10:44:57.706Z,97937.44
2023-03-04T10:46:01.567Z,97935.69
2023-03-04T10:47:11.274Z,97937.13
2023-03-04T10:48:26.752Z,97933.38
2023-03-04T10:49:30.303Z,97944.50
2023-03-04T10:50:33.202Z,97935.56
2023-03-04T10:51:45.837Z,97938.88
2023-03-04T10:52:53.009Z,97939.59
2023-03-04T10:54:21.346Z,97927.63
2023-03-04T10:55:28.237Z,97923.56
2023-03-04T10:56:57.268Z,97927.03
2023-03-04T10:58:05.724Z,97932.38
2023-03-04T10:59:43.784Z,97918.38
2023-03-04T11:01:25.512Z,97921.00
2023-03-04T11:02:34.703Z,97924.88
2023-03-04T11:03:37.873Z,97915.94
2023-03-04T11:04:40.789Z,97916.78
2023-03-04T11:05:43.663Z,97917.50
2023-03-04T11:06:46.538Z,97904.09
2023-03-04T11:07:57.329Z,97908.28
2023-03-04T11:09:00.757Z,97912.59
2023-03-04T11:10:21.539Z,97902.06
2023-03-04T11:11:31.496Z,97903.81
2023-03-04T11:12:35.990Z,97901.06
2023-03-04T11:13:52.752Z,97902.22
2023-03-04T11:14:56.283Z,97901.34
2023-03-04T11:16:03.017Z,97908.72
2023-03-04T11:17:26.796Z,97900.62
2023-03-04T11:18:44.537Z,97897.03
2023-03-04T11:20:40.932Z,97896.00
2023-03-04T11:21:44.550Z,97905.94
2023-03-04T11:22:47.935Z,97903.38
2023-03-04T11:24:00.574Z,97893.84
2023-03-04T11:25:08.619Z,97892.72
2023-03-04T11:26:21.981Z,97886.47
2023-03-04T11:27:31.131Z,97892.34
2023-03-04T11:28:45.345Z,97896.28
2023-03-04T11:29:55.482Z,97895.25
2023-03-04T11:31:03.543Z,97873.34
2023-03-04T11:32:24.778Z,97879.25
2023-03-04T11:33:42.511Z,97875.53
2023-03-04T11:35:01.799Z,97880.31
2023-03-04T11:36:55.358Z,97881.03
2023-03-04T11:38:09.234Z,97877.69
2023-03-04T11:39:33.392Z,97881.44
2023-03-04T11:40:48.596Z,97866.97
2023-03-04T11:42:40.414Z,97877.19
2023-03-04T11:43:46.654Z,97881.19
2023-03-04T11:44:50.413Z,97865.63
2023-03-04T11:46:33.463Z,97869.81
2023-03-04T11:48:19.149Z,97868.66
2023-03-04T11:49:49.504Z,97873.44
2023-03-04T11:50:57.528Z,97866.91
2023-03-04T11:52:06.865Z,97860.25
2023-03-04T11:53:35.267Z,97862.41
2023-03-04T11:55:06.396Z,97852.88
2023-03-04T11:56:32.373Z,97862.69
2023-03-04T11:57:54.270Z,97851.00
2023-03-04T11:59:12.903Z,97857.34
2023-03-04T12:00:21.999Z,97859.94
2023-03-04T12:01:33.828Z,97859.53
2023-03-04T12:02:59.009Z,97872.22
2023-03-04T12:04:29.946Z,97854.06
2023-03-04T12:05:47.110Z,97850.91
2023-03-04T12:06:59.261Z,97853.53
2023-03-04T12:08:17.412Z,97844.91
2023-03-04T12:09:20.416Z,97840.31
2023-03-04T12:10:33.746Z,97844.59
2023-03-04T12:12:26.375Z,97845.19
2023-03-04T12:13:47.402Z,97836.19
2023-03-04T12:15:11.787Z,97842.44
2023-03-04T12:16:53.184Z,97836.34
2023-03-04T12:18:28.273Z,97831.47
2023-03-04T12:19:36.957Z,97829.88
2023-03-04T12:21:18.157Z,97821.94
2023-03-04T12:22:45.858Z,97821.47
2023-03-04T12:24:07.731Z,97821.63
2023-03-04T12:25:25.815Z,97825.06
2023-03-04T12:26:55.402Z,97838.47
2023-03-04T12:28:17.007Z,97824.22
2023-03-04T12:29:58.892Z,97808.53
2023-03-04T12:31:23.687Z,97813.84
2023-03-04T12:32:37.594Z,97823.66
2023-03-04T12:34:01.885Z,97817.31
2023-03-04T12:35:26.533Z,97818.06
2023-03-04T12:36:55.864Z,97819.34
2023-03-04T12:38:14.490Z,97816.03
2023-03-04T12:39:39.575Z,97808.25
2023-03-04T12:41:11.869Z,97810.81
2023-03-04T12:42:32.926Z,97810.06
2023-03-04T12:43:54.293Z,97812.91
2023-03-04T12:45:42.610Z,97806.72
2023-03-04T12:47:08.978Z,97809.88
2023-03-04T12:54:17.630Z,97796.19
2023-03-04T12:55:26.027Z,97787.19
2023-03-04T12:56:39.096Z,97790.06
2023-03-04T12:57:42.855Z,97785.69
2023-03-04T12:58:45.973Z,97782.78
2023-03-04T13:00:33.310Z,97789.38
2023-03-04T13:01:45.932Z,97792.13
2023-03-04T13:03:10.488Z,97779.00
2023-03-04T13:04:23.853Z,97783.50
2023-03-04T13:05:47.376Z,97783.78
2023-03-04T13:07:12.669Z,97778.84
2023-03-04T13:08:34.710Z,97773.81